Time;durP1;ratioP1;P1;durP2;ratioP2;P2;SDS_P1;SDS_P2;PMS_P1;PMS_P2;Temp;Humidity;BMP_temperature;BMP_pressure;BME280_temperature;BME280_humidity;BME280_pressure;Samples;Min_cycle;Max_cycle;Signal;HPM_P1;HPM_P2
2023/07/17 00:00:41;;;;;;;;;;;;;;;23.02;51.77;101084.31;4968648;28;4127;-68
2023/07/17 00:03:12;;;;;;;;;;;;;;;22.98;51.85;101100.06;4969204;28;4228;-68
2023/07/17 00:05:38;;;;;;;;;;;;;;;23.02;52.11;101090.09;4958238;28;4112;-68
2023/07/17 00:08:05;;;;;;;;;;;;;;;23.04;52.10;101090.19;4956376;28;4722;-68
2023/07/17 00:10:31;;;;;;;;;;;;;;;23.08;52.20;101090.34;4954183;28;4104;-68
2023/07/17 00:12:58;;;;;;;;;;;;;;;23.04;52.47;101085.16;4966734;28;4374;-68
2023/07/17 00:15:25;;;;;;;;;;;;;;;23.05;52.77;101080.13;4971649;28;4024;-68
2023/07/17 00:17:51;;;;;;;;;;;;;;;23.02;52.63;101084.31;4973043;28;4103;-68
2023/07/17 00:20:17;;;;;;;;;;;;;;;22.97;52.95;101081.25;4966803;28;4156;-68
2023/07/17 00:22:44;;;;;;;;;;;;;;;23.00;53.10;101076.34;4959356;28;4418;-68
2023/07/17 00:25:11;;;;;;;;;;;;;;;22.97;53.07;101077.63;4955203;28;4173;-68
2023/07/17 00:27:37;;;;;;;;;;;;;;;22.95;53.18;101078.31;4967184;28;4383;-68
2023/07/17 00:30:04;;;;;;;;;;;;;;;22.95;52.83;101077.53;4987923;28;4269;-68
2023/07/17 00:32:30;;;;;;;;;;;;;;;22.93;53.10;101072.44;4955953;28;4153;-68
2023/07/17 00:34:57;;;;;;;;;;;;;;;22.93;52.93;101071.69;4956092;28;4085;-68
2023/07/17 00:37:23;;;;;;;;;;;;;;;22.91;53.08;101054.31;4959474;28;4146;-67
2023/07/17 00:39:51;;;;;;;;;;;;;;;22.92;53.09;101073.84;4955266;28;4138;-68
2023/07/17 00:42:18;;;;;;;;;;;;;;;22.91;52.85;101065.84;4980302;28;4103;-67
2023/07/17 00:44:45;;;;;;;;;;;;;;;22.90;53.04;101064.34;5004117;28;4043;-68
2023/07/17 00:47:12;;;;;;;;;;;;;;;22.91;53.00;101066.59;4962417;28;3975;-68
2023/07/17 00:49:40;;;;;;;;;;;;;;;22.91;53.20;101065.84;4962768;28;4177;-68
2023/07/17 00:52:07;;;;;;;;;;;;;;;22.92;53.17;101068.06;4969475;28;4210;-68
2023/07/17 00:54:35;;;;;;;;;;;;;;;22.90;53.19;101070.88;4974007;28;4369;-69
2023/07/17 00:57:02;;;;;;;;;;;;;;;22.90;52.96;101070.88;4969939;28;4059;-68
2023/07/17 00:59:28;;;;;;;;;;;;;;;22.90;53.14;101064.34;4937432;28;4081;-68
2023/07/17 01:01:55;;;;;;;;;;;;;;;22.88;53.26;101067.16;4961145;28;4973;-68
2023/07/17 01:04:21;;;;;;;;;;;;;;;22.86;53.08;101059.19;4958518;28;4115;-68
2023/07/17 01:06:48;;;;;;;;;;;;;;;22.84;53.42;101055.44;4963486;28;4065;-68
2023/07/17 01:09:15;;;;;;;;;;;;;;;22.82;53.52;101053.25;4968619;28;4219;-68
2023/07/17 01:11:42;;;;;;;;;;;;;;;22.86;53.45;101050.50;4969743;28;4876;-68
2023/07/17 01:14:18;;;;;;;;;;;;;;;22.81;53.61;101045.97;4983298;28;4347;-68
2023/07/17 01:16:45;;;;;;;;;;;;;;;22.79;53.34;101054.53;4954041;28;4168;-68
2023/07/17 01:19:12;;;;;;;;;;;;;;;22.78;53.75;101053.06;4970244;28;4375;-68
2023/07/17 01:21:40;;;;;;;;;;;;;;;22.82;53.67;101047.47;4935927;28;4029;-68
2023/07/17 01:24:06;;;;;;;;;;;;;;;22.83;53.71;101054.72;4956117;28;3961;-72
2023/07/17 01:26:34;;;;;;;;;;;;;;;22.84;53.69;101059.09;4965528;28;4131;-73
2023/07/17 01:29:00;;;;;;;;;;;;;;;22.85;54.04;101062.72;4957274;28;4253;-73
2023/07/17 01:31:28;;;;;;;;;;;;;;;22.88;54.07;101056.34;4974141;28;4388;-73
2023/07/17 01:33:54;;;;;;;;;;;;;;;22.88;53.84;101050.56;4953994;28;4102;-73
2023/07/17 01:36:21;;;;;;;;;;;;;;;22.89;54.22;101052.06;4955638;28;4177;-73
2023/07/17 01:38:47;;;;;;;;;;;;;;;22.86;54.39;101041.84;4957308;28;4252;-73
2023/07/17 01:41:13;;;;;;;;;;;;;;;22.83;54.59;101060.47;4960201;28;4490;-73
2023/07/17 01:43:40;;;;;;;;;;;;;;;22.81;54.65;101071.94;4981922;28;4116;-73
2023/07/17 01:46:08;;;;;;;;;;;;;;;22.82;54.82;101076.34;4960748;28;4250;-73
2023/07/17 01:48:35;;;;;;;;;;;;;;;22.85;54.84;101063.44;4955314;28;4202;-73
2023/07/17 01:51:01;;;;;;;;;;;;;;;22.91;54.96;101065.84;4961545;28;4954;-73
2023/07/17 01:53:28;;;;;;;;;;;;;;;22.89;55.01;101072.28;4982031;28;4326;-73
2023/07/17 01:55:54;;;;;;;;;;;;;;;22.85;55.10;101066.34;4964732;28;4211;-73
2023/07/17 01:58:21;;;;;;;;;;;;;;;22.85;55.19;101060.56;4951815;28;4200;-72
2023/07/17 02:00:51;;;;;;;;;;;;;;;22.88;54.90;101062.13;4981272;28;4139;-73
2023/07/17 02:03:18;;;;;;;;;;;;;;;22.85;55.07;101056.94;4949172;28;4554;-72
2023/07/17 02:05:44;;;;;;;;;;;;;;;22.82;55.22;101058.28;4955584;28;4112;-73
2023/07/17 02:08:11;;;;;;;;;;;;;;;22.77;54.99;101063.88;4960277;28;4003;-73
2023/07/17 02:10:43;;;;;;;;;;;;;;;22.75;54.79;101063.06;4953023;28;4541;-73
2023/07/17 02:13:10;;;;;;;;;;;;;;;22.70;55.09;101067.94;4950736;28;4186;-73
2023/07/17 02:15:36;;;;;;;;;;;;;;;22.69;54.84;101062.81;4975255;28;4207;-73
2023/07/17 02:18:04;;;;;;;;;;;;;;;22.64;55.18;101072.72;4965761;28;4067;-73
2023/07/17 02:20:30;;;;;;;;;;;;;;;22.64;55.00;101072.72;4980437;28;4507;-73
2023/07/17 02:22:57;;;;;;;;;;;;;;;22.64;55.14;101075.59;4964147;28;4156;-73
2023/07/17 02:25:23;;;;;;;;;;;;;;;22.67;55.08;101082.94;4961040;28;4174;-72
2023/07/17 02:27:50;;;;;;;;;;;;;;;22.69;55.11;101085.91;4953794;28;5041;-73
2023/07/17 02:30:16;;;;;;;;;;;;;;;22.61;55.03;101080.56;4952538;28;4258;-73
2023/07/17 02:32:43;;;;;;;;;;;;;;;22.58;55.21;101082.59;4943629;28;4121;-73
2023/07/17 02:35:10;;;;;;;;;;;;;;;22.54;55.36;101084.56;4955526;28;3983;-73
2023/07/17 02:37:37;;;;;;;;;;;;;;;22.51;54.93;101077.25;4963115;28;5897;-72
2023/07/17 02:40:12;;;;;;;;;;;;;;;22.51;54.81;101080.88;4956063;28;4060;-73
2023/07/17 02:42:39;;;;;;;;;;;;;;;22.46;55.09;101076.34;4961908;28;4494;-73
2023/07/17 02:45:08;;;;;;;;;;;;;;;22.48;54.82;101090.84;4956638;28;4209;-73
2023/07/17 02:47:35;;;;;;;;;;;;;;;22.45;54.63;101092.19;4955959;28;4286;-73
2023/07/17 02:50:03;;;;;;;;;;;;;;;22.44;54.69;101084.91;4963595;28;4191;-73
2023/07/17 02:52:34;;;;;;;;;;;;;;;22.42;54.80;101093.47;4959335;28;4311;-73
2023/07/17 02:55:02;;;;;;;;;;;;;;;22.42;54.47;101093.47;4958741;28;4383;-73
2023/07/17 02:57:28;;;;;;;;;;;;;;;22.45;54.66;101091.41;4956627;28;4039;-73
2023/07/17 02:59:54;;;;;;;;;;;;;;;22.33;54.99;101091.66;4959198;28;4285;-73
2023/07/17 03:02:21;;;;;;;;;;;;;;;22.37;54.60;101094.72;4979176;28;4201;-72
2023/07/17 03:04:48;;;;;;;;;;;;;;;22.32;54.65;101087.28;4959426;28;4567;-73
2023/07/17 03:07:15;;;;;;;;;;;;;;;22.29;54.41;101091.50;4962372;28;4256;-73
2023/07/17 03:09:41;;;;;;;;;;;;;;;22.25;54.56;101085.56;4969389;28;4056;-73
2023/07/17 03:12:09;;;;;;;;;;;;;;;22.26;54.87;101082.00;4965371;28;4117;-73
2023/07/17 03:14:36;;;;;;;;;;;;;;;22.25;54.80;101083.41;4968964;28;4254;-73
2023/07/17 03:17:02;;;;;;;;;;;;;;;22.24;54.48;101081.94;4961729;28;4399;-73
2023/07/17 03:19:29;;;;;;;;;;;;;;;22.21;54.46;101079.59;4966180;28;4211;-73
2023/07/17 03:21:55;;;;;;;;;;;;;;;22.21;54.79;101079.59;4962215;28;4151;-73
2023/07/17 03:24:21;;;;;;;;;;;;;;;22.17;54.64;101080.91;4962387;28;4079;-73
2023/07/17 03:26:48;;;;;;;;;;;;;;;22.16;54.46;101078.66;4957307;28;4127;-73
2023/07/17 03:29:14;;;;;;;;;;;;;;;22.17;54.37;101075.13;4952775;28;4503;-73
2023/07/17 03:31:41;;;;;;;;;;;;;;;22.16;54.66;101079.41;4977788;28;4043;-73
2023/07/17 03:34:08;;;;;;;;;;;;;;;22.18;54.36;101082.38;4966076;28;4130;-72
2023/07/17 03:36:34;;;;;;;;;;;;;;;22.23;54.57;101083.31;4967371;28;4629;-73
2023/07/17 03:39:01;;;;;;;;;;;;;;;22.22;54.47;101086.84;4978312;28;4134;-73
2023/07/17 03:41:27;;;;;;;;;;;;;;;22.20;54.61;101089.66;4976183;28;4499;-72
2023/07/17 03:43:56;;;;;;;;;;;;;;;22.20;54.90;101093.28;4971407;28;4213;-73
2023/07/17 03:46:23;;;;;;;;;;;;;;;22.23;55.08;101094.13;4968330;28;4048;-72
2023/07/17 03:48:49;;;;;;;;;;;;;;;22.26;55.28;101092.78;5004262;28;4116;-73
2023/07/17 03:51:16;;;;;;;;;;;;;;;22.22;55.37;101104.16;4966783;28;4050;-73
2023/07/17 03:53:43;;;;;;;;;;;;;;;22.23;55.38;101094.13;4939900;28;5315;-73
2023/07/17 03:56:10;;;;;;;;;;;;;;;22.27;55.21;101094.28;4957285;28;4084;-73
2023/07/17 03:58:36;;;;;;;;;;;;;;;22.30;55.13;101113.16;4954227;28;4140;-73
2023/07/17 04:01:03;;;;;;;;;;;;;;;22.37;55.28;101115.66;4967813;28;4154;-73
2023/07/17 04:03:38;;;;;;;;;;;;;;;22.47;54.92;101106.69;4984365;28;4159;-73
2023/07/17 04:06:04;;;;;;;;;;;;;;;22.57;54.36;101115.75;4951935;28;4111;-73
2023/07/17 04:08:31;;;;;;;;;;;;;;;22.65;53.99;101120.38;4956633;28;4476;-73
2023/07/17 04:10:57;;;;;;;;;;;;;;;22.72;53.79;101119.22;4951664;28;4179;-72
2023/07/17 04:13:23;;;;;;;;;;;;;;;22.73;53.45;101109.16;4952129;28;4293;-73
2023/07/17 04:15:50;;;;;;;;;;;;;;;22.76;53.19;101104.97;4951477;28;4086;-73
2023/07/17 04:18:17;;;;;;;;;;;;;;;22.74;52.75;101110.66;4990468;28;4482;-70
2023/07/17 04:20:43;;;;;;;;;;;;;;;22.64;52.49;101102.31;4978560;28;4408;-73
2023/07/17 04:23:12;;;;;;;;;;;;;;;22.51;52.79;101103.22;4955236;28;4446;-73
2023/07/17 04:25:43;;;;;;;;;;;;;;;22.40;53.61;101099.16;4950790;28;4165;-73
2023/07/17 04:28:10;;;;;;;;;;;;;;;22.35;53.88;101094.63;4948287;28;4016;-73
2023/07/17 04:30:37;;;;;;;;;;;;;;;22.36;54.02;101104.78;4970438;28;4191;-73
2023/07/17 04:33:08;;;;;;;;;;;;;;;22.36;53.69;101105.50;4950414;28;4177;-73
2023/07/17 04:35:35;;;;;;;;;;;;;;;22.45;53.16;101095.06;4956642;28;4368;-73
2023/07/17 04:38:02;;;;;;;;;;;;;;;22.51;53.21;101101.06;4980950;28;4251;-73
2023/07/17 04:40:29;;;;;;;;;;;;;;;22.52;52.98;101108.34;4966830;28;4067;-73
2023/07/17 04:42:57;;;;;;;;;;;;;;;22.32;52.56;101107.50;4962973;28;4308;-71
2023/07/17 04:45:24;;;;;;;;;;;;;;;22.13;52.63;101120.38;4967876;28;4531;-72
2023/07/17 04:47:52;;;;;;;;;;;;;;;22.11;51.61;101106.59;4967397;28;4356;-74
2023/07/17 04:50:21;;;;;;;;;;;;;;;21.85;52.06;101102.56;4979014;28;4302;-73
2023/07/17 04:52:47;;;;;;;;;;;;;;;21.62;52.07;101109.47;4967753;28;4126;-73
2023/07/17 04:55:14;;;;;;;;;;;;;;;21.69;52.02;101103.34;4965221;28;3972;-78
2023/07/17 04:57:40;;;;;;;;;;;;;;;21.87;51.29;101112.03;4981614;28;5079;-76
2023/07/17 05:00:09;;;;;;;;;;;;;;;21.86;51.48;101109.81;4966454;28;4195;-77
2023/07/17 05:02:36;;;;;;;;;;;;;;;21.99;51.49;101105.31;4978588;28;4209;-77
2023/07/17 05:05:02;;;;;;;;;;;;;;;21.81;51.83;101108.16;4964534;28;3936;-77
2023/07/17 05:07:29;;;;;;;;;;;;;;;21.92;51.89;101107.19;4963997;28;4387;-77
2023/07/17 05:09:56;;;;;;;;;;;;;;;22.13;51.62;101111.72;4968767;28;4405;-77
2023/07/17 05:12:22;;;;;;;;;;;;;;;22.06;51.70;101102.06;4969236;28;4319;-77
2023/07/17 05:14:51;;;;;;;;;;;;;;;21.89;52.17;101115.00;4963010;28;4440;-76
2023/07/17 05:17:18;;;;;;;;;;;;;;;22.08;51.54;101113.69;4983832;28;4501;-76
2023/07/17 05:19:45;;;;;;;;;;;;;;;22.09;51.75;101115.16;4966820;28;4033;-74
2023/07/17 05:22:11;;;;;;;;;;;;;;;22.17;51.53;101111.88;4967245;28;4352;-73
2023/07/17 05:24:38;;;;;;;;;;;;;;;22.23;51.17;101111.44;4968339;28;4492;-72
2023/07/17 05:27:05;;;;;;;;;;;;;;;22.24;51.63;101118.66;4966269;28;4289;-72
2023/07/17 05:29:32;;;;;;;;;;;;;;;22.12;52.01;101113.84;4975731;28;4338;-71
2023/07/17 05:31:59;;;;;;;;;;;;;;;22.22;51.76;101119.34;4970924;28;4213;-73
2023/07/17 05:34:25;;;;;;;;;;;;;;;22.32;51.48;101113.25;4968626;28;4464;-72
2023/07/17 05:36:52;;;;;;;;;;;;;;;22.37;51.64;101117.78;4968704;28;4051;-72
2023/07/17 05:39:18;;;;;;;;;;;;;;;22.43;51.88;101126.72;4969512;28;4126;-72
2023/07/17 05:41:46;;;;;;;;;;;;;;;22.37;51.71;101126.44;4975300;28;4146;-73
2023/07/17 05:44:13;;;;;;;;;;;;;;;22.47;51.72;101134.78;4983648;28;4615;-76
2023/07/17 05:46:40;;;;;;;;;;;;;;;22.40;52.13;101133.78;4985937;28;4139;-91
2023/07/17 05:49:07;;;;;;;;;;;;;;;22.22;54.02;101127.22;4974674;28;4052;-85
2023/07/17 05:51:34;;;;;;;;;;;;;;;22.39;51.55;101117.88;4977960;28;4186;-85
2023/07/17 05:54:00;;;;;;;;;;;;;;;21.95;52.10;101129.69;5006863;28;3971;-82
2023/07/17 05:56:27;;;;;;;;;;;;;;;22.12;51.72;101131.13;4984921;28;4790;-84
2023/07/17 05:58:53;;;;;;;;;;;;;;;22.25;52.20;101125.94;5013554;28;4169;-81
2023/07/17 06:01:20;;;;;;;;;;;;;;;22.37;51.96;101123.56;4952174;28;4380;-79
2023/07/17 06:03:46;;;;;;;;;;;;;;;22.34;51.66;101127.78;4998209;28;4387;-82
2023/07/17 06:06:13;;;;;;;;;;;;;;;22.62;51.07;101121.69;4981048;28;4377;-91
2023/07/17 06:08:39;;;;;;;;;;;;;;;22.92;50.98;101125.81;5002623;28;4173;-81
2023/07/17 06:11:05;;;;;;;;;;;;;;;22.28;49.97;101121.72;4980622;28;4165;-82
2023/07/17 06:13:32;;;;;;;;;;;;;;;22.72;49.88;101130.75;4978341;28;4410;-80
2023/07/17 06:15:58;;;;;;;;;;;;;;;22.66;49.94;101127.66;4985805;28;4874;-81
2023/07/17 06:18:25;;;;;;;;;;;;;;;22.64;50.34;101136.22;4989456;28;4073;-79
2023/07/17 06:20:51;;;;;;;;;;;;;;;22.64;50.83;101142.72;4984456;28;4054;-84
2023/07/17 06:23:17;;;;;;;;;;;;;;;22.52;49.97;101145.13;4999278;28;4185;-82
2023/07/17 06:25:45;;;;;;;;;;;;;;;22.44;50.83;101136.84;4980103;28;3943;-85
2023/07/17 06:28:11;;;;;;;;;;;;;;;22.51;50.12;101140.72;4983053;28;4101;-82
2023/07/17 06:30:38;;;;;;;;;;;;;;;22.76;49.38;101139.59;4971665;28;4359;-79
2023/07/17 06:33:04;;;;;;;;;;;;;;;22.89;49.26;101149.50;4982482;28;4163;-82
2023/07/17 06:35:31;;;;;;;;;;;;;;;22.97;48.50;101141.91;4982131;28;4162;-83
2023/07/17 06:37:57;;;;;;;;;;;;;;;22.79;48.37;101135.38;4975621;28;4127;-81
2023/07/17 06:40:23;;;;;;;;;;;;;;;22.88;48.65;101136.47;4975318;28;3915;-79
2023/07/17 06:42:50;;;;;;;;;;;;;;;22.96;48.10;101134.66;4970377;28;4203;-75
2023/07/17 06:45:16;;;;;;;;;;;;;;;23.05;47.81;101135.00;4969600;28;4356;-75
2023/07/17 06:47:43;;;;;;;;;;;;;;;23.09;47.62;101143.81;4972610;28;4108;-78
2023/07/17 06:50:09;;;;;;;;;;;;;;;23.00;47.98;101137.72;4967861;28;3969;-76
2023/07/17 06:52:38;;;;;;;;;;;;;;;22.90;47.88;101143.06;4970279;28;4219;-73
2023/07/17 06:55:05;;;;;;;;;;;;;;;22.96;48.12;101149.09;4969573;28;4083;-73
2023/07/17 06:57:32;;;;;;;;;;;;;;;23.04;47.54;101151.56;4967526;28;4270;-73
2023/07/17 06:59:59;;;;;;;;;;;;;;;22.94;46.69;101146.13;4964293;28;4076;-76
2023/07/17 07:02:25;;;;;;;;;;;;;;;22.80;46.24;101146.28;4967655;28;4143;-74
2023/07/17 07:04:51;;;;;;;;;;;;;;;22.80;46.06;101154.94;4973002;28;4117;-76
2023/07/17 07:07:18;;;;;;;;;;;;;;;22.87;46.13;101149.44;4969014;28;4392;-75
2023/07/17 07:09:45;;;;;;;;;;;;;;;22.91;46.76;101153.22;4969245;28;3944;-76
2023/07/17 07:12:11;;;;;;;;;;;;;;;22.79;46.75;101152.69;4970965;28;4141;-75
2023/07/17 07:14:38;;;;;;;;;;;;;;;22.96;46.74;101148.34;4972850;28;3898;-76
2023/07/17 07:17:04;;;;;;;;;;;;;;;22.89;46.62;101150.25;4972480;28;4213;-75
2023/07/17 07:19:30;;;;;;;;;;;;;;;22.92;46.53;101146.03;4976254;28;4151;-77
2023/07/17 07:21:57;;;;;;;;;;;;;;;22.90;45.94;101151.72;4970361;28;4577;-64
2023/07/17 07:24:23;;;;;;;;;;;;;;;23.07;46.23;101152.41;4971227;28;4376;-60
2023/07/17 07:26:50;;;;;;;;;;;;;;;23.14;46.23;101152.00;4970486;28;4373;-64
2023/07/17 07:29:16;;;;;;;;;;;;;;;23.11;46.24;101158.34;4975209;28;4037;-64
2023/07/17 07:31:43;;;;;;;;;;;;;;;23.12;45.41;101160.56;4973024;28;4050;-64
2023/07/17 07:34:09;;;;;;;;;;;;;;;23.13;45.75;101149.75;4969594;28;4568;-64
2023/07/17 07:36:35;;;;;;;;;;;;;;;23.30;45.77;101159.81;4966937;28;4136;-69
2023/07/17 07:39:05;;;;;;;;;;;;;;;23.47;44.79;101166.97;4970164;28;4044;-71
2023/07/17 07:41:35;;;;;;;;;;;;;;;23.59;44.74;101168.19;4969272;28;4198;-71
2023/07/17 07:44:01;;;;;;;;;;;;;;;23.66;44.27;101174.16;4976452;28;4186;-70
2023/07/17 07:46:28;;;;;;;;;;;;;;;23.67;44.69;101173.53;4969260;28;4477;-70
2023/07/17 07:48:54;;;;;;;;;;;;;;;23.76;44.75;101172.44;4968827;28;4282;-70
2023/07/17 07:51:21;;;;;;;;;;;;;;;23.71;44.88;101188.13;4969352;28;4266;-69
2023/07/17 07:53:47;;;;;;;;;;;;;;;23.80;44.85;101181.28;4971851;28;4043;-68
2023/07/17 07:56:13;;;;;;;;;;;;;;;23.82;45.12;101187.13;4970910;28;4247;-68
2023/07/17 07:58:40;;;;;;;;;;;;;;;23.85;45.27;101179.28;4968310;28;4091;-68
2023/07/17 08:01:07;;;;;;;;;;;;;;;23.91;45.22;101181.63;4966986;28;4100;-71
2023/07/17 08:03:33;;;;;;;;;;;;;;;23.92;45.26;101188.91;4968166;28;4015;-69
2023/07/17 08:06:00;;;;;;;;;;;;;;;24.07;45.57;101187.28;4968501;28;4117;-72
2023/07/17 08:08:26;;;;;;;;;;;;;;;24.23;45.12;101191.50;4959047;28;4514;-71
2023/07/17 08:10:53;;;;;;;;;;;;;;;24.16;44.60;101186.88;4968128;28;3955;-69
2023/07/17 08:13:19;;;;;;;;;;;;;;;23.94;45.18;101189.00;4968936;28;4977;-71
2023/07/17 08:15:46;;;;;;;;;;;;;;;23.87;45.34;101184.38;4972403;28;4392;-70
2023/07/17 08:18:13;;;;;;;;;;;;;;;23.91;45.94;101193.19;4974389;28;4178;-73
2023/07/17 08:20:39;;;;;;;;;;;;;;;24.27;45.39;101187.28;4968389;28;4102;-71
2023/07/17 08:23:06;;;;;;;;;;;;;;;24.39;45.26;101187.69;4972715;28;4233;-73
2023/07/17 08:25:32;;;;;;;;;;;;;;;24.47;45.32;101188.00;4968276;28;4231;-71
2023/07/17 08:27:59;;;;;;;;;;;;;;;24.51;45.22;101193.94;4976106;28;3943;-71
2023/07/17 08:30:25;;;;;;;;;;;;;;;24.47;44.82;101190.91;4971329;28;4209;-71
2023/07/17 08:32:52;;;;;;;;;;;;;;;24.56;45.38;101194.81;4967207;28;4061;-71
2023/07/17 08:35:18;;;;;;;;;;;;;;;24.21;45.70;101190.66;4972913;28;4404;-68
2023/07/17 08:37:45;;;;;;;;;;;;;;;24.12;45.93;101195.44;4969894;28;4223;-70
2023/07/17 08:40:11;;;;;;;;;;;;;;;23.85;45.98;101190.09;4969729;28;5023;-68
2023/07/17 08:42:38;;;;;;;;;;;;;;;24.19;45.96;101187.72;4982827;28;4170;-70
2023/07/17 08:45:05;;;;;;;;;;;;;;;24.10;46.11;101186.69;4972403;28;4594;-71
2023/07/17 08:47:31;;;;;;;;;;;;;;;23.93;46.27;101178.81;4955064;28;4058;-69
2023/07/17 08:49:58;;;;;;;;;;;;;;;23.80;46.33;101178.38;4939296;28;4214;-67
2023/07/17 08:52:26;;;;;;;;;;;;;;;23.96;46.61;101177.47;4973858;28;4236;-67
2023/07/17 08:54:53;;;;;;;;;;;;;;;23.96;46.84;101166.66;4971438;28;4197;-69
2023/07/17 08:57:19;;;;;;;;;;;;;;;24.04;46.52;101175.63;4976813;28;4106;-69
2023/07/17 08:59:45;;;;;;;;;;;;;;;23.90;46.62;101186.69;4968847;28;4139;-66
2023/07/17 09:02:12;;;;;;;;;;;;;;;23.88;46.05;101177.19;4968278;28;4030;-66
2023/07/17 09:04:38;;;;;;;;;;;;;;;23.72;46.16;101183.09;4969684;28;4141;-66
2023/07/17 09:07:05;;;;;;;;;;;;;;;23.78;47.24;101189.88;4973949;28;4061;-68
2023/07/17 09:09:31;;;;;;;;;;;;;;;24.16;46.63;101174.59;4974046;28;3983;-68
2023/07/17 09:12:05;;;;;;;;;;;;;;;24.33;46.28;101181.72;4970590;28;4353;-67
2023/07/17 09:14:31;;;;;;;;;;;;;;;24.40;46.23;101180.50;4971230;28;4282;-68
2023/07/17 09:17:03;;;;;;;;;;;;;;;24.48;45.94;101183.69;4970868;28;4186;-67
2023/07/17 09:19:30;;;;;;;;;;;;;;;24.49;46.32;101185.19;4970218;28;4209;-68
2023/07/17 09:21:57;;;;;;;;;;;;;;;24.21;46.71;101179.09;4971204;28;4216;-69
2023/07/17 09:24:24;;;;;;;;;;;;;;;24.10;46.80;101197.50;4966922;28;4063;-68
2023/07/17 09:26:54;;;;;;;;;;;;;;;24.11;47.04;101191.06;4972421;28;4339;-68
2023/07/17 09:29:21;;;;;;;;;;;;;;;24.05;45.34;101179.25;4969433;28;5602;-68
2023/07/17 09:31:48;;;;;;;;;;;;;;;24.13;46.91;101181.72;4969939;28;4066;-68
2023/07/17 09:34:15;;;;;;;;;;;;;;;24.15;46.17;101181.78;4974156;28;4194;-68
2023/07/17 09:36:41;;;;;;;;;;;;;;;24.13;46.72;101181.72;4968536;28;4139;-68
2023/07/17 09:39:08;;;;;;;;;;;;;;;24.06;45.86;101180.75;4967637;28;4171;-67
2023/07/17 09:41:35;;;;;;;;;;;;;;;24.13;47.15;101178.81;4966903;28;4199;-67
2023/07/17 09:44:04;;;;;;;;;;;;;;;24.03;46.59;101170.53;4967764;28;4475;-66
2023/07/17 09:46:32;;;;;;;;;;;;;;;24.01;46.07;101179.13;4965678;28;4038;-65
2023/07/17 09:48:58;;;;;;;;;;;;;;;24.01;47.07;101176.22;4968231;28;4587;-66
2023/07/17 09:51:24;;;;;;;;;;;;;;;24.15;46.85;101168.06;4965930;28;4182;-65
2023/07/17 09:53:51;;;;;;;;;;;;;;;24.10;46.96;101169.34;4967480;28;4026;-65
2023/07/17 09:56:18;;;;;;;;;;;;;;;24.11;47.23;101170.81;4968053;28;4550;-64
2023/07/17 09:58:47;;;;;;;;;;;;;;;24.19;46.97;101159.53;4970238;28;4141;-69
2023/07/17 10:01:25;;;;;;;;;;;;;;;24.24;47.12;101160.41;4968241;28;4375;-68
2023/07/17 10:03:52;;;;;;;;;;;;;;;24.22;46.96;101166.88;4957431;28;4494;-69
2023/07/17 10:06:19;;;;;;;;;;;;;;;24.32;46.78;101159.94;4964861;28;4247;-69
2023/07/17 10:08:49;;;;;;;;;;;;;;;24.23;46.85;101165.47;4966883;28;4016;-70
2023/07/17 10:11:19;;;;;;;;;;;;;;;24.22;46.96;101169.75;4963580;28;4499;-72
2023/07/17 10:13:48;;;;;;;;;;;;;;;24.33;47.14;101161.44;4966003;28;4275;-72
2023/07/17 10:16:15;;;;;;;;;;;;;;;24.72;46.46;101171.47;4999142;28;4883;-72
2023/07/17 10:18:52;;;;;;;;;;;;;;;24.74;45.96;101169.38;4972843;28;4172;-71
2023/07/17 10:21:18;;;;;;;;;;;;;;;24.57;45.90;101173.13;4966802;28;4055;-70
2023/07/17 10:23:45;;;;;;;;;;;;;;;24.70;46.00;101168.50;4968079;28;4187;-71
2023/07/17 10:26:12;;;;;;;;;;;;;;;24.69;45.88;101184.38;4970198;28;3995;-71
2023/07/17 10:28:39;;;;;;;;;;;;;;;24.61;46.12;101181.97;4967987;28;4149;-72
2023/07/17 10:31:08;;;;;;;;;;;;;;;24.45;46.37;101168.38;4974465;28;4027;-72
2023/07/17 10:33:35;;;;;;;;;;;;;;;24.42;46.65;101171.88;4973520;28;4159;-72
2023/07/17 10:36:02;;;;;;;;;;;;;;;24.40;46.32;101160.25;4965220;28;4242;-70
2023/07/17 10:38:35;;;;;;;;;;;;;;;24.73;46.35;101172.94;4966004;28;4253;-70
2023/07/17 10:41:11;;;;;;;;;;;;;;;24.58;46.10;101160.88;4966881;28;4314;-72
2023/07/17 10:43:37;;;;;;;;;;;;;;;24.45;46.48;101162.59;4966841;28;4025;-69
2023/07/17 10:46:07;;;;;;;;;;;;;;;24.30;46.45;101168.56;4969922;28;4563;-70
2023/07/17 10:48:34;;;;;;;;;;;;;;;24.48;46.46;101154.00;4972994;28;4217;-68
2023/07/17 10:51:00;;;;;;;;;;;;;;;24.45;46.20;101142.31;4967572;28;4031;-68
2023/07/17 10:53:27;;;;;;;;;;;;;;;24.40;46.39;101166.03;4966941;28;4194;-67
2023/07/17 10:55:53;;;;;;;;;;;;;;;24.39;46.37;101161.63;4970162;28;4235;-71
2023/07/17 10:58:20;;;;;;;;;;;;;;;24.49;46.23;101156.25;4975058;28;4342;-71
2023/07/17 11:00:46;;;;;;;;;;;;;;;24.55;46.18;101162.22;4970824;28;3928;-72
2023/07/17 11:03:13;;;;;;;;;;;;;;;24.55;46.16;101159.31;4975745;28;4087;-71
2023/07/17 11:05:40;;;;;;;;;;;;;;;24.69;46.56;101161.94;4984638;28;4228;-70
2023/07/17 11:08:06;;;;;;;;;;;;;;;24.78;46.10;101162.97;4969923;28;4115;-68
2023/07/17 11:10:33;;;;;;;;;;;;;;;24.57;46.22;101150.72;4968052;28;4199;-71
2023/07/17 11:13:00;;;;;;;;;;;;;;;24.30;45.42;101156.97;4971020;28;4429;-70
2023/07/17 11:15:27;;;;;;;;;;;;;;;24.51;46.43;101147.63;4969407;28;4436;-69
2023/07/17 11:17:53;;;;;;;;;;;;;;;24.62;45.98;101158.13;4966873;28;4080;-66
2023/07/17 11:20:20;;;;;;;;;;;;;;;24.74;45.96;101159.94;4967143;28;4406;-70
2023/07/17 11:22:46;;;;;;;;;;;;;;;24.53;46.18;101156.34;4969987;28;4331;-69
2023/07/17 11:25:13;;;;;;;;;;;;;;;24.44;46.53;101143.75;4967390;28;4123;-68
2023/07/17 11:27:40;;;;;;;;;;;;;;;24.60;46.56;101155.16;4974978;28;4083;-71
2023/07/17 11:30:27;;;;;;;;;;;;;;;24.28;45.45;101151.13;4973962;28;4061;-68
2023/07/17 11:33:04;;;;;;;;;;;;;;;24.34;43.62;101152.06;4960207;28;4170;-67
2023/07/17 11:35:40;;;;;;;;;;;;;;;24.58;43.57;101146.41;4965414;28;4040;-72
2023/07/17 11:38:07;;;;;;;;;;;;;;;24.66;42.56;101149.56;4978602;28;4144;-69
2023/07/17 11:40:47;;;;;;;;;;;;;;;24.66;43.07;101152.47;4960626;28;4231;-68
2023/07/17 11:43:14;;;;;;;;;;;;;;;24.59;43.13;101147.16;4968174;28;4520;-68
2023/07/17 11:45:40;;;;;;;;;;;;;;;24.49;43.52;101144.66;4965490;28;4372;-69
2023/07/17 11:48:06;;;;;;;;;;;;;;;24.57;43.56;101144.91;4966899;28;4204;-69
2023/07/17 11:50:33;;;;;;;;;;;;;;;24.56;43.99;101140.56;4970898;28;4528;-68
2023/07/17 11:53:06;;;;;;;;;;;;;;;24.55;43.90;101136.16;4970932;28;4153;-69
2023/07/17 11:55:33;;;;;;;;;;;;;;;24.56;44.23;101139.81;4985633;28;4282;-79
2023/07/17 11:57:59;;;;;;;;;;;;;;;24.63;44.63;101138.59;4970278;28;4742;-71
2023/07/17 12:00:30;;;;;;;;;;;;;;;24.74;44.30;101136.75;4969598;28;4067;-73
2023/07/17 12:02:56;;;;;;;;;;;;;;;24.69;44.24;101132.25;4970297;28;4291;-69
2023/07/17 12:05:23;;;;;;;;;;;;;;;24.46;44.58;101128.59;4969914;28;4511;-67
2023/07/17 12:07:49;;;;;;;;;;;;;;;24.39;44.97;101124.00;4969509;28;4081;-68
2023/07/17 12:10:16;;;;;;;;;;;;;;;24.50;45.09;101131.66;4970672;28;4040;-67
2023/07/17 12:12:42;;;;;;;;;;;;;;;24.71;44.83;101123.63;4967559;28;4224;-70
2023/07/17 12:15:09;;;;;;;;;;;;;;;24.65;44.74;101122.03;4974593;28;4005;-67
2023/07/17 12:17:35;;;;;;;;;;;;;;;24.66;44.93;101116.97;4970257;28;4286;-74
2023/07/17 12:20:02;;;;;;;;;;;;;;;24.78;44.54;101111.56;4976433;28;4091;-71
2023/07/17 12:22:28;;;;;;;;;;;;;;;24.65;44.96;101124.19;4970883;28;4531;-68
2023/07/17 12:24:56;;;;;;;;;;;;;;;24.61;45.21;101127.69;4971051;28;4189;-71
2023/07/17 12:27:22;;;;;;;;;;;;;;;24.59;45.18;101121.09;4967235;28;4253;-71
2023/07/17 12:29:51;;;;;;;;;;;;;;;24.78;45.35;101134.75;4970358;28;3941;-73
2023/07/17 12:32:17;;;;;;;;;;;;;;;24.88;44.99;101131.44;4972759;28;4124;-69
2023/07/17 12:34:44;;;;;;;;;;;;;;;24.79;45.28;101130.44;4968305;28;4087;-70
2023/07/17 12:37:12;;;;;;;;;;;;;;;24.74;45.31;101125.94;4970473;28;4221;-68
2023/07/17 12:39:38;;;;;;;;;;;;;;;24.92;44.99;101119.97;4971304;28;4155;-67
2023/07/17 12:42:05;;;;;;;;;;;;;;;24.91;44.87;101118.50;4971909;28;4214;-67
2023/07/17 12:44:33;;;;;;;;;;;;;;;24.89;45.33;101121.34;4965002;28;4813;-67
2023/07/17 12:46:59;;;;;;;;;;;;;;;24.92;45.07;101125.75;4971515;28;4442;-69